Time;durP1;ratioP1;P1;durP2;ratioP2;P2;SDS_P1;SDS_P2;PMS_P1;PMS_P2;Temp;Humidity;BMP_temperature;BMP_pressure;BME280_temperature;BME280_humidity;BME280_pressure;Samples;Min_cycle;Max_cycle;Signal;HPM_P1;HPM_P2
2023/10/31 00:02:21;;;;;;;1.80;0.60;;;;;;;10.87;100.00;148855.88;5033949;28;20237;-51
2023/10/31 00:04:48;;;;;;;1.33;0.50;;;;;;;10.77;100.00;148832.25;5028919;28;20242;-51
2023/10/31 00:07:14;;;;;;;3.27;0.50;;;;;;;10.71;100.00;148818.53;5033312;28;20570;-51
2023/10/31 00:09:41;;;;;;;0.60;0.47;;;;;;;10.66;100.00;148806.06;5033127;28;20279;-51
2023/10/31 00:12:08;;;;;;;1.27;0.60;;;;;;;10.60;100.00;148791.16;5036133;28;20318;-53
2023/10/31 00:14:35;;;;;;;1.33;0.50;;;;;;;10.63;100.00;148799.84;5039818;28;20235;-51
2023/10/31 00:17:03;;;;;;;3.27;0.43;;;;;;;10.59;100.00;148789.91;5036641;28;20235;-53
2023/10/31 00:19:30;;;;;;;1.23;0.43;;;;;;;10.61;100.00;148793.59;5036381;28;20324;-51
2023/10/31 00:21:57;;;;;;;0.93;0.40;;;;;;;10.62;100.00;148796.09;5034729;28;20304;-53
2023/10/31 00:24:23;;;;;;;3.30;0.40;;;;;;;10.64;100.00;148801.09;5037935;28;20306;-52
2023/10/31 00:26:50;;;;;;;1.60;0.40;;;;;;;10.66;100.00;148806.06;5035077;28;20253;-51
2023/10/31 00:29:17;;;;;;;1.90;0.50;;;;;;;10.56;100.00;148782.41;5025880;28;20221;-51
2023/10/31 00:31:43;;;;;;;1.40;0.50;;;;;;;10.49;100.00;148764.97;5028612;28;20295;-51
2023/10/31 00:34:11;;;;;;;0.83;0.30;;;;;;;10.48;100.00;148762.50;5022547;28;20236;-51
2023/10/31 00:36:38;;;;;;;2.13;0.63;;;;;;;10.52;100.00;148772.47;5016556;28;20734;-51
2023/10/31 00:39:05;;;;;;;2.97;0.60;;;;;;;10.52;100.00;148772.47;5035678;28;20275;-52
2023/10/31 00:41:32;;;;;;;1.43;0.67;;;;;;;10.60;100.00;148791.16;5035799;28;20234;-51
2023/10/31 00:43:58;;;;;;;0.93;0.57;;;;;;;10.60;100.00;148791.16;5032937;28;20259;-51
2023/10/31 00:46:25;;;;;;;1.50;0.80;;;;;;;10.61;100.00;148793.59;5020133;28;20291;-53
2023/10/31 00:48:52;;;;;;;1.43;0.60;;;;;;;10.60;100.00;148792.38;5022343;28;20233;-52
2023/10/31 00:51:20;;;;;;;1.27;0.70;;;;;;;10.64;100.00;148801.09;5043599;28;20231;-51
2023/10/31 00:53:46;;;;;;;2.97;0.90;;;;;;;10.63;100.00;148798.59;5017637;28;20589;-51
2023/10/31 00:56:13;;;;;;;2.57;0.60;;;;;;;10.63;100.00;148798.59;5037712;28;20585;-52
2023/10/31 00:58:40;;;;;;;1.63;0.50;;;;;;;10.62;100.00;148796.09;5012706;28;20235;-51
2023/10/31 01:01:07;;;;;;;0.67;0.50;;;;;;;10.63;100.00;148799.84;5028318;28;20245;-51
2023/10/31 01:03:34;;;;;;;1.43;0.60;;;;;;;10.61;100.00;148793.59;5038189;28;20736;-52
2023/10/31 01:06:01;;;;;;;2.70;0.57;;;;;;;10.61;100.00;148793.59;5015210;28;20680;-51
2023/10/31 01:08:29;;;;;;;0.57;0.47;;;;;;;10.63;100.00;148798.59;5019081;28;20233;-51
2023/10/31 01:10:56;;;;;;;1.43;0.50;;;;;;;10.61;100.00;148793.59;5019639;28;20264;-53
2023/10/31 01:13:23;;;;;;;2.83;0.40;;;;;;;10.68;100.00;148809.81;5026954;28;20241;-51
2023/10/31 01:15:50;;;;;;;1.37;0.50;;;;;;;10.63;100.00;148799.84;5023553;28;20260;-52
2023/10/31 01:18:16;;;;;;;2.60;0.63;;;;;;;10.63;100.00;148798.59;5019577;28;20318;-52
2023/10/31 01:20:43;;;;;;;2.03;0.60;;;;;;;10.63;100.00;148798.59;5014917;28;20223;-51
2023/10/31 01:23:10;;;;;;;2.93;0.60;;;;;;;10.70;100.00;148814.81;5037045;28;20233;-51
2023/10/31 01:25:38;;;;;;;2.93;0.47;;;;;;;10.68;100.00;148809.81;5027622;28;20234;-53
2023/10/31 01:28:04;;;;;;;3.37;0.50;;;;;;;10.60;100.00;148792.38;5025616;28;20217;-53
2023/10/31 01:30:31;;;;;;;0.73;0.50;;;;;;;10.61;100.00;148793.59;5036810;28;20591;-51
2023/10/31 01:32:58;;;;;;;1.60;0.50;;;;;;;10.64;100.00;148801.09;5011022;28;20326;-52
2023/10/31 01:35:24;;;;;;;1.70;0.53;;;;;;;10.61;100.00;148794.88;5019004;28;20228;-51
2023/10/31 01:37:51;;;;;;;1.67;0.70;;;;;;;10.67;100.00;148807.34;5032098;28;20222;-52
2023/10/31 01:40:18;;;;;;;0.60;0.60;;;;;;;10.56;100.00;148782.41;5018375;28;20225;-53
2023/10/31 01:42:46;;;;;;;2.33;0.60;;;;;;;10.58;100.00;148786.19;5023104;28;20727;-52
2023/10/31 01:45:13;;;;;;;1.10;0.50;;;;;;;10.65;100.00;148803.56;5034548;28;20236;-53
2023/10/31 01:47:40;;;;;;;1.97;0.40;;;;;;;10.69;100.00;148813.53;5018672;28;20769;-51
2023/10/31 01:50:09;;;;;;;1.47;0.50;;;;;;;10.65;100.00;148802.34;5017191;28;20222;-51
2023/10/31 01:52:37;;;;;;;1.50;0.53;;;;;;;10.57;100.00;148784.91;5025973;28;20260;-51
2023/10/31 01:55:06;;;;;;;3.93;0.63;;;;;;;10.56;100.00;148781.19;5016505;28;20226;-53
2023/10/31 01:57:32;;;;;;;4.40;0.70;;;;;;;10.48;100.00;148763.75;5036459;28;20683;-54
2023/10/31 02:00:01;;;;;;;1.53;0.50;;;;;;;10.44;100.00;148752.53;5030607;28;20240;-51
2023/10/31 02:02:29;;;;;;;2.40;0.87;;;;;;;10.41;100.00;148746.31;5037522;28;20220;-51
2023/10/31 02:04:56;;;;;;;0.60;0.50;;;;;;;10.45;100.00;148755.03;5015462;28;20236;-51
2023/10/31 02:07:23;;;;;;;0.97;0.50;;;;;;;10.40;100.00;148743.84;5035946;28;20229;-52
2023/10/31 02:09:50;;;;;;;1.87;0.60;;;;;;;10.36;100.00;148732.56;5014930;28;20604;-51
2023/10/31 02:12:32;;;;;;;2.10;0.50;;;;;;;10.38;100.00;148738.81;5034837;28;20817;-51
2023/10/31 02:14:58;;;;;;;2.80;0.63;;;;;;;10.33;100.00;148726.34;5013231;28;20242;-53
2023/10/31 02:17:26;;;;;;;1.00;0.50;;;;;;;10.39;100.00;148741.34;5026208;28;20233;-51
2023/10/31 02:19:53;;;;;;;1.23;0.50;;;;;;;10.36;100.00;148733.81;5015555;28;20316;-51
2023/10/31 02:22:22;;;;;;;2.20;0.50;;;;;;;10.38;100.00;148738.81;5035103;28;20228;-53
2023/10/31 02:24:49;;;;;;;2.30;0.67;;;;;;;10.36;100.00;148733.81;5012740;28;20229;-51
2023/10/31 02:27:15;;;;;;;2.07;0.50;;;;;;;10.33;100.00;148727.56;5025717;28;20219;-51
2023/10/31 02:29:42;;;;;;;1.00;0.40;;;;;;;10.33;100.00;148727.56;5010098;28;20240;-51
2023/10/31 02:32:09;;;;;;;2.00;0.73;;;;;;;10.33;100.00;148726.34;5034207;28;20237;-52
2023/10/31 02:34:35;;;;;;;3.73;0.50;;;;;;;10.32;100.00;148723.84;5035047;28;20224;-52
2023/10/31 02:37:02;;;;;;;1.20;0.30;;;;;;;10.28;100.00;148715.13;5016957;28;20228;-51
2023/10/31 02:39:30;;;;;;;2.60;0.43;;;;;;;10.28;100.00;148715.13;5015826;28;20229;-51
2023/10/31 02:41:57;;;;;;;1.80;0.43;;;;;;;10.29;100.00;148717.59;5032184;28;20698;-54
2023/10/31 02:44:24;;;;;;;2.43;0.53;;;;;;;10.29;100.00;148717.59;5015919;28;20249;-53
2023/10/31 02:46:51;;;;;;;2.03;0.50;;;;;;;10.29;100.00;148717.59;5035053;28;20233;-54
2023/10/31 02:49:17;;;;;;;1.97;0.50;;;;;;;10.26;100.00;148710.13;5036428;28;20228;-53
2023/10/31 02:51:44;;;;;;;4.23;0.50;;;;;;;10.26;100.00;148710.13;5032211;28;20237;-54
2023/10/31 02:54:11;;;;;;;2.77;0.33;;;;;;;10.27;100.00;148711.41;5035538;28;20229;-53
2023/10/31 02:56:39;;;;;;;3.67;0.40;;;;;;;10.32;100.00;148725.09;5026498;28;20227;-52
2023/10/31 02:59:05;;;;;;;1.10;0.47;;;;;;;10.27;100.00;148712.63;5039162;28;20232;-52
2023/10/31 03:01:33;;;;;;;1.80;0.53;;;;;;;10.27;100.00;148711.41;5034099;28;20643;-52
2023/10/31 03:04:00;;;;;;;2.30;0.53;;;;;;;10.30;100.00;148718.88;5036629;28;20237;-51
2023/10/31 03:06:27;;;;;;;2.97;0.50;;;;;;;10.36;100.00;148732.56;5037039;28;20317;-51
2023/10/31 03:08:53;;;;;;;0.97;0.40;;;;;;;10.32;100.00;148723.84;5046289;28;20247;-52
2023/10/31 03:11:23;;;;;;;3.17;0.47;;;;;;;10.36;100.00;148733.81;5034484;28;20226;-52
2023/10/31 03:13:52;;;;;;;1.40;0.50;;;;;;;10.32;100.00;148723.84;5042981;28;20317;-52
2023/10/31 03:16:19;;;;;;;1.67;0.50;;;;;;;10.37;100.00;148736.31;5033073;28;20575;-53
2023/10/31 03:18:46;;;;;;;1.90;0.50;;;;;;;10.30;100.00;148720.09;5034967;28;20248;-51
2023/10/31 03:21:13;;;;;;;2.63;0.67;;;;;;;10.28;100.00;148713.91;5047816;28;20310;-52
2023/10/31 03:23:40;;;;;;;1.23;0.30;;;;;;;10.27;100.00;148711.41;5038139;28;20696;-53
2023/10/31 03:26:06;;;;;;;2.20;0.50;;;;;;;10.24;100.00;148703.94;5026224;28;20221;-53
2023/10/31 03:28:33;;;;;;;2.10;0.40;;;;;;;10.17;100.00;148689.00;5029539;28;20229;-53
2023/10/31 03:31:01;;;;;;;1.80;0.30;;;;;;;10.09;100.00;148669.06;5027868;28;20282;-52
2023/10/31 03:33:28;;;;;;;1.67;0.50;;;;;;;10.10;100.00;148670.28;5028085;28;20228;-55
2023/10/31 03:35:54;;;;;;;1.40;0.50;;;;;;;10.05;100.00;148659.09;5029707;28;20247;-54
2023/10/31 03:38:21;;;;;;;1.73;0.50;;;;;;;9.97;100.00;148639.19;5036400;28;20221;-54
2023/10/31 03:40:48;;;;;;;3.00;1.00;;;;;;;9.93;100.00;148629.22;5031126;28;20308;-55
2023/10/31 03:43:14;;;;;;;2.57;0.50;;;;;;;9.85;100.00;148611.78;5032576;28;20218;-54
2023/10/31 03:45:42;;;;;;;1.53;0.40;;;;;;;9.83;100.00;148605.59;5036264;28;20228;-54
2023/10/31 03:48:10;;;;;;;4.93;0.77;;;;;;;9.81;100.00;148600.63;5039722;28;20229;-54
2023/10/31 03:50:36;;;;;;;1.07;0.50;;;;;;;9.82;100.00;148604.31;5039724;28;20688;-53
2023/10/31 03:53:03;;;;;;;2.83;0.90;;;;;;;9.79;100.00;148596.84;5029527;28;20237;-52
2023/10/31 03:55:30;;;;;;;0.53;0.40;;;;;;;9.75;100.00;148588.16;5019416;28;20827;-55
2023/10/31 03:57:57;;;;;;;2.33;0.60;;;;;;;9.79;100.00;148596.84;5016698;28;20270;-53
2023/10/31 04:00:24;;;;;;;1.07;0.33;;;;;;;9.74;100.00;148584.41;5015405;28;20724;-52
2023/10/31 04:02:51;;;;;;;1.93;0.50;;;;;;;9.73;100.00;148581.91;5017987;28;20236;-52
2023/10/31 04:05:19;;;;;;;2.83;0.70;;;;;;;9.71;100.00;148576.94;5018379;28;20234;-54
2023/10/31 04:07:51;;;;;;;2.23;0.50;;;;;;;9.69;100.00;148573.22;5030287;28;20681;-52
2023/10/31 04:10:19;;;;;;;3.47;0.50;;;;;;;9.70;100.00;148575.72;5019468;28;20213;-51
2023/10/31 04:12:52;;;;;;;0.70;0.50;;;;;;;9.70;100.00;148575.72;5028501;28;20240;-51
2023/10/31 04:15:18;;;;;;;1.70;0.70;;;;;;;9.65;100.00;148562.00;5030733;28;20305;-51
2023/10/31 04:17:48;;;;;;;1.93;0.60;;;;;;;9.66;100.00;148564.50;5030475;28;20224;-54
2023/10/31 04:20:15;;;;;;;1.57;0.43;;;;;;;9.60;100.00;148550.81;5030528;28;20239;-54
2023/10/31 04:22:43;;;;;;;1.27;0.50;;;;;;;9.59;100.00;148548.34;5026372;28;20601;-54
2023/10/31 04:25:10;;;;;;;0.77;0.57;;;;;;;9.55;100.00;148538.38;5030052;28;20234;-55
2023/10/31 04:27:36;;;;;;;1.10;0.43;;;;;;;9.55;100.00;148539.59;5031644;28;20231;-55
2023/10/31 04:32:53;;;;;;;2.23;0.40;;;;;;;9.50;100.00;148527.19;5081569;23;20898;-54
2023/10/31 04:35:20;;;;;;;4.53;0.40;;;;;;;9.51;100.00;148529.69;5013691;28;20229;-53
2023/10/31 04:37:52;;;;;;;2.47;0.30;;;;;;;9.45;100.00;148514.75;5014869;28;20232;-53
2023/10/31 04:40:19;;;;;;;1.60;0.60;;;;;;;9.42;100.00;148507.28;5018009;28;20229;-53
2023/10/31 04:42:51;;;;;;;2.83;0.33;;;;;;;9.45;100.00;148514.75;5007414;28;20233;-53
2023/10/31 04:45:18;;;;;;;2.80;0.47;;;;;;;9.51;100.00;148528.41;5009489;28;20222;-53
2023/10/31 04:47:45;;;;;;;1.27;0.60;;;;;;;9.49;100.00;148524.69;5002940;28;20237;-52
2023/10/31 04:50:11;;;;;;;3.20;0.50;;;;;;;9.52;100.00;148532.19;5009239;28;20224;-53
2023/10/31 04:52:38;;;;;;;1.63;0.50;;;;;;;9.54;100.00;148535.88;4989395;28;20280;-53
2023/10/31 04:55:07;;;;;;;1.30;0.50;;;;;;;9.49;100.00;148524.69;4988854;28;20308;-52
2023/10/31 04:57:34;;;;;;;4.83;0.60;;;;;;;9.48;100.00;148520.94;5007274;28;20237;-51
2023/10/31 05:00:03;;;;;;;1.27;0.67;;;;;;;9.45;100.00;148515.97;4995885;28;20248;-51
2023/10/31 05:02:30;;;;;;;3.13;0.50;;;;;;;9.46;100.00;148517.22;4998116;28;20245;-53
2023/10/31 05:04:57;;;;;;;3.87;0.50;;;;;;;9.44;100.00;148513.47;5004368;28;21241;-54
2023/10/31 05:07:24;;;;;;;3.10;0.50;;;;;;;9.51;100.00;148529.69;4977021;28;20232;-51
2023/10/31 05:09:53;;;;;;;2.40;0.50;;;;;;;9.49;100.00;148523.44;5004131;28;20218;-52
2023/10/31 05:12:21;;;;;;;3.13;0.53;;;;;;;9.54;100.00;148537.09;5006310;28;20230;-51
2023/10/31 05:14:48;;;;;;;2.00;0.50;;;;;;;9.51;100.00;148529.69;5005160;28;20660;-52
2023/10/31 05:18:07;;;;;;;0.50;0.40;;;;;;;9.54;100.00;148537.09;5008974;28;20296;-52
2023/10/31 05:20:34;;;;;;;3.00;0.60;;;;;;;9.54;100.00;148537.09;5005566;28;20745;-52
2023/10/31 05:23:01;;;;;;;5.30;0.47;;;;;;;9.56;100.00;148542.09;5002923;28;20233;-52
2023/10/31 05:25:27;;;;;;;1.17;0.50;;;;;;;9.56;100.00;148542.09;5011756;28;20239;-54
2023/10/31 05:27:55;;;;;;;2.60;0.30;;;;;;;9.64;100.00;148559.50;5005723;28;20234;-51
2023/10/31 05:30:22;;;;;;;2.17;0.53;;;;;;;9.65;100.00;148562.00;5010631;28;20216;-53
2023/10/31 05:32:51;;;;;;;1.57;0.60;;;;;;;9.69;100.00;148573.22;5004737;28;20587;-52
2023/10/31 05:35:17;;;;;;;1.07;0.40;;;;;;;9.68;100.00;148569.47;5007474;28;20225;-52
2023/10/31 05:37:44;;;;;;;5.47;0.60;;;;;;;9.67;100.00;148568.25;5004898;28;20240;-53
2023/10/31 05:40:12;;;;;;;2.90;0.43;;;;;;;9.62;100.00;148554.53;5008354;28;20593;-52
2023/10/31 05:42:39;;;;;;;1.70;0.40;;;;;;;9.65;100.00;148562.00;5004105;28;20226;-52
2023/10/31 05:45:07;;;;;;;2.30;0.50;;;;;;;9.59;100.00;148549.56;5005319;28;20237;-52
2023/10/31 05:47:34;;;;;;;1.17;0.53;;;;;;;9.57;100.00;148543.34;5007301;28;20230;-51
2023/10/31 05:50:01;;;;;;;3.60;0.80;;;;;;;9.55;100.00;148539.59;5004658;28;20225;-54
2023/10/31 05:52:29;;;;;;;2.00;0.70;;;;;;;9.51;100.00;148529.69;5007596;28;20234;-51
2023/10/31 05:54:56;;;;;;;3.83;0.50;;;;;;;9.42;100.00;148507.28;5004518;28;20584;-51
2023/10/31 05:57:22;;;;;;;5.93;2.50;;;;;;;9.40;100.00;148502.31;5009004;28;20280;-52
2023/10/31 05:59:49;;;;;;;4.97;2.47;;;;;;;9.36;100.00;148492.34;5003232;28;20581;-51
2023/10/31 06:02:17;;;;;;;3.93;0.83;;;;;;;9.35;100.00;148491.06;5008206;28;20790;-52
2023/10/31 06:04:43;;;;;;;3.20;1.60;;;;;;;9.30;100.00;148479.91;5003427;28;20230;-51
2023/10/31 06:07:11;;;;;;;7.13;2.13;;;;;;;9.34;100.00;148488.59;5008321;28;20225;-52
2023/10/31 06:09:38;;;;;;;2.17;0.80;;;;;;;9.36;100.00;148492.34;5004936;28;20268;-53
2023/10/31 06:12:05;;;;;;;3.50;1.50;;;;;;;9.36;100.00;148493.56;4993957;28;20620;-52
2023/10/31 06:14:32;;;;;;;3.10;0.80;;;;;;;9.37;100.00;148494.84;5005503;28;20221;-52
2023/10/31 06:16:59;;;;;;;2.90;0.80;;;;;;;9.43;100.00;148509.78;5002991;28;20289;-53
2023/10/31 06:19:27;;;;;;;2.73;0.90;;;;;;;9.40;100.00;148503.53;5006525;28;20781;-51
2023/10/31 06:21:53;;;;;;;4.43;0.80;;;;;;;9.42;100.00;148507.28;5010468;28;20230;-52
2023/10/31 06:24:20;;;;;;;4.13;1.00;;;;;;;9.42;100.00;148508.50;5006842;28;20276;-53
2023/10/31 06:26:46;;;;;;;1.13;0.70;;;;;;;9.48;100.00;148520.94;4977057;28;20229;-51
2023/10/31 06:29:13;;;;;;;2.20;0.70;;;;;;;9.49;100.00;148524.69;5007400;28;20278;-52
2023/10/31 06:31:40;;;;;;;2.47;0.80;;;;;;;9.47;100.00;148519.72;5002557;28;20799;-52
2023/10/31 06:34:06;;;;;;;1.67;0.40;;;;;;;9.51;100.00;148528.41;5006751;28;20229;-52
2023/10/31 06:36:34;;;;;;;3.33;0.90;;;;;;;9.48;100.00;148522.22;5006717;28;20240;-51
2023/10/31 06:39:01;;;;;;;2.80;0.77;;;;;;;9.54;100.00;148535.88;4999935;28;20233;-54
2023/10/31 06:41:28;;;;;;;6.57;0.73;;;;;;;9.56;100.00;148542.09;5007594;28;20310;-51
2023/10/31 06:43:55;;;;;;;3.33;0.80;;;;;;;9.63;100.00;148558.28;5002235;28;20822;-51
2023/10/31 06:46:21;;;;;;;2.60;0.80;;;;;;;9.66;100.00;148564.50;5005765;28;20305;-54
2023/10/31 06:48:48;;;;;;;3.70;0.67;;;;;;;9.65;100.00;148563.25;5004813;28;20233;-51
2023/10/31 06:51:14;;;;;;;1.80;0.60;;;;;;;9.73;100.00;148581.91;5008062;28;20760;-52
2023/10/31 06:53:42;;;;;;;1.77;0.60;;;;;;;9.73;100.00;148583.19;5001577;28;20254;-54
2023/10/31 06:56:09;;;;;;;6.13;0.80;;;;;;;9.73;100.00;148583.19;5012325;28;20235;-52
2023/10/31 06:58:35;;;;;;;3.17;0.60;;;;;;;9.74;100.00;148584.41;5007332;28;20217;-51
2023/10/31 07:01:03;;;;;;;2.83;1.23;;;;;;;9.79;100.00;148596.84;5001738;28;20245;-52
2023/10/31 07:03:29;;;;;;;3.27;0.53;;;;;;;9.82;100.00;148604.31;5005368;28;20349;-52
2023/10/31 07:05:56;;;;;;;3.07;0.60;;;;;;;9.84;100.00;148609.31;5003666;28;20225;-52
2023/10/31 07:08:23;;;;;;;4.63;0.63;;;;;;;9.87;100.00;148616.78;5006476;28;20309;-53
2023/10/31 07:10:51;;;;;;;2.17;0.50;;;;;;;9.83;100.00;148606.81;4995537;28;20233;-52
2023/10/31 07:13:18;;;;;;;6.00;1.07;;;;;;;9.87;100.00;148615.56;5003596;28;20594;-52
2023/10/31 07:15:45;;;;;;;3.40;0.90;;;;;;;9.91;100.00;148625.50;5002804;28;20225;-53
2023/10/31 07:18:12;;;;;;;3.53;0.80;;;;;;;9.96;100.00;148637.97;5003880;28;20317;-52
2023/10/31 07:20:38;;;;;;;6.33;4.70;;;;;;;10.04;100.00;148656.63;5005804;28;20236;-54
2023/10/31 07:23:05;;;;;;;5.33;1.40;;;;;;;10.12;100.00;148675.28;5004481;28;20693;-54
2023/10/31 07:25:32;;;;;;;8.57;3.10;;;;;;;10.20;100.00;148695.19;5007168;28;20345;-54
2023/10/31 07:28:00;;;;;;;3.33;0.87;;;;;;;10.28;97.98;148715.13;5002420;28;20377;-54
2023/10/31 07:30:26;;;;;;;2.30;0.80;;;;;;;10.41;95.90;148745.06;5002882;28;20297;-51
2023/10/31 07:32:53;;;;;;;3.20;0.80;;;;;;;10.41;96.41;148746.31;5004719;28;20244;-52
2023/10/31 07:35:20;;;;;;;7.97;4.10;;;;;;;10.45;98.81;148756.28;5006334;28;20235;-52
2023/10/31 07:37:51;;;;;;;3.67;0.90;;;;;;;10.49;96.15;148764.97;4984633;28;20591;-54
2023/10/31 07:40:17;;;;;;;6.97;0.70;;;;;;;10.57;95.60;148783.69;5004569;28;20704;-51
2023/10/31 07:42:44;;;;;;;8.57;3.13;;;;;;;10.45;96.29;148755.03;4993579;28;20697;-51
2023/10/31 07:45:12;;;;;;;3.27;1.00;;;;;;;10.50;96.63;148767.47;5007551;28;20220;-53
2023/10/31 07:47:39;;;;;;;6.70;2.93;;;;;;;10.55;95.37;148779.94;5005333;28;20227;-51
2023/10/31 07:50:06;;;;;;;15.90;8.43;;;;;;;10.68;94.24;148809.81;5002564;28;20284;-53
2023/10/31 07:52:32;;;;;;;3.87;0.70;;;;;;;10.67;94.81;148808.56;5007620;28;20245;-53
2023/10/31 07:54:59;;;;;;;4.30;0.83;;;;;;;10.65;96.21;148802.34;5002920;28;20229;-54
2023/10/31 07:57:26;;;;;;;2.33;0.77;;;;;;;10.78;93.87;148835.97;5006153;28;20702;-53
2023/10/31 07:59:52;;;;;;;5.13;1.40;;;;;;;10.80;94.67;148839.72;5002663;28;20261;-51
2023/10/31 08:02:20;;;;;;;4.97;1.20;;;;;;;10.77;96.28;148832.25;5003710;28;20223;-53
2023/10/31 08:04:46;;;;;;;6.63;1.00;;;;;;;10.80;96.13;148839.72;5000395;28;20238;-54
2023/10/31 08:07:13;;;;;;;2.70;0.90;;;;;;;10.73;95.07;148823.50;5002043;28;20233;-52
2023/10/31 08:09:40;;;;;;;4.00;1.47;;;;;;;10.77;97.37;148832.25;5001387;28;20230;-54
2023/10/31 08:12:07;;;;;;;6.87;1.23;;;;;;;10.72;96.61;148819.78;5008125;28;20236;-51
2023/10/31 08:14:34;;;;;;;6.53;0.90;;;;;;;10.81;94.82;148840.94;5001973;28;20229;-54
2023/10/31 08:17:01;;;;;;;3.83;0.83;;;;;;;10.82;95.88;148843.44;4973499;28;20236;-53
2023/10/31 08:19:28;;;;;;;2.83;0.93;;;;;;;11.01;96.58;148890.78;5005466;28;20234;-52
2023/10/31 08:21:55;;;;;;;3.57;1.47;;;;;;;11.05;97.04;148900.75;5000556;28;20229;-52
2023/10/31 08:24:22;;;;;;;5.40;0.93;;;;;;;10.80;97.02;148839.72;5005143;28;20225;-51
2023/10/31 08:26:48;;;;;;;6.30;0.80;;;;;;;10.74;97.76;148826.00;4999792;28;20293;-51
2023/10/31 08:29:15;;;;;;;4.97;1.10;;;;;;;10.84;97.11;148848.41;5006946;28;20225;-53
2023/10/31 08:31:41;;;;;;;4.20;1.40;;;;;;;10.85;98.67;148852.19;5005348;28;20248;-51
2023/10/31 08:34:08;;;;;;;7.27;3.00;;;;;;;10.85;98.66;148852.19;5010191;28;20234;-53
2023/10/31 08:36:36;;;;;;;4.20;1.37;;;;;;;10.86;96.96;148853.41;5015949;28;20317;-54
2023/10/31 08:39:03;;;;;;;5.83;1.30;;;;;;;10.77;99.29;148832.25;5011311;28;20245;-51
2023/10/31 08:41:30;;;;;;;4.63;1.07;;;;;;;10.75;100.00;148828.50;5011468;28;20316;-52
2023/10/31 08:43:58;;;;;;;5.50;0.90;;;;;;;10.85;99.25;148850.91;5004774;28;20238;-51
2023/10/31 08:46:24;;;;;;;5.20;1.27;;;;;;;10.92;99.91;148868.34;5007756;28;20229;-51
2023/10/31 08:48:51;;;;;;;6.23;1.10;;;;;;;10.71;100.00;148818.53;5003925;28;20275;-52
2023/10/31 08:51:17;;;;;;;3.23;1.07;;;;;;;10.58;100.00;148786.19;5008568;28;20227;-51
2023/10/31 08:53:45;;;;;;;3.73;1.70;;;;;;;10.63;100.00;148798.59;5007999;28;20222;-55
2023/10/31 08:56:12;;;;;;;5.40;1.77;;;;;;;10.61;100.00;148794.88;5010877;28;20223;-55
2023/10/31 08:58:38;;;;;;;5.17;1.30;;;;;;;10.62;100.00;148797.38;5006227;28;20230;-54
2023/10/31 09:01:05;;;;;;;9.07;1.97;;;;;;;10.44;100.00;148752.53;5008649;28;20610;-55
2023/10/31 09:03:31;;;;;;;7.47;1.37;;;;;;;10.30;100.00;148718.88;5007307;28;20269;-54
2023/10/31 09:05:58;;;;;;;11.90;2.97;;;;;;;10.55;100.00;148779.94;5005032;28;20236;-54
2023/10/31 09:08:24;;;;;;;2.80;1.13;;;;;;;10.61;100.00;148793.59;5008628;28;20264;-54
2023/10/31 09:10:52;;;;;;;3.63;1.30;;;;;;;10.78;100.00;148834.75;5005080;28;20640;-52
2023/10/31 09:13:19;;;;;;;3.40;0.90;;;;;;;10.95;100.00;148874.59;5006919;28;20710;-52
2023/10/31 09:15:46;;;;;;;3.27;1.03;;;;;;;11.11;100.00;148913.22;5007176;28;20241;-54
2023/10/31 09:18:13;;;;;;;7.60;1.40;;;;;;;11.13;100.00;148918.19;5006524;28;20305;-52
2023/10/31 09:20:40;;;;;;;7.40;1.00;;;;;;;11.15;100.00;148924.41;5006711;28;20322;-53
2023/10/31 09:23:06;;;;;;;6.47;1.73;;;;;;;11.15;100.00;148923.16;5006408;28;20451;-51
2023/10/31 09:25:33;;;;;;;7.00;1.13;;;;;;;11.01;100.00;148889.56;5012995;28;20248;-51
2023/10/31 09:28:01;;;;;;;2.13;0.93;;;;;;;11.10;100.00;148911.97;5004468;28;20287;-53
2023/10/31 09:30:28;;;;;;;2.70;0.90;;;;;;;11.17;100.00;148928.16;5007598;28;20255;-52
2023/10/31 09:32:54;;;;;;;3.73;1.23;;;;;;;11.00;100.00;148887.06;5002140;28;20222;-53
2023/10/31 09:35:21;;;;;;;4.93;0.87;;;;;;;10.78;100.00;148835.97;5007838;28;20766;-52
2023/10/31 09:37:51;;;;;;;2.87;1.00;;;;;;;10.99;100.00;148885.78;4996562;28;20730;-52
2023/10/31 09:40:18;;;;;;;4.10;1.00;;;;;;;11.13;100.00;148919.41;5008467;28;20242;-53
2023/10/31 09:42:45;;;;;;;5.63;1.10;;;;;;;11.49;100.00;149006.63;5008212;28;20242;-52
2023/10/31 09:45:14;;;;;;;7.43;0.90;;;;;;;11.35;100.00;148973.03;5005781;28;20223;-54
2023/10/31 09:47:41;;;;;;;5.13;0.93;;;;;;;11.72;100.00;149060.22;5005363;28;20229;-53
2023/10/31 09:50:09;;;;;;;3.67;1.00;;;;;;;11.82;100.00;149085.16;5008314;28;20223;-53
2023/10/31 09:52:37;;;;;;;2.67;1.00;;;;;;;11.56;100.00;149022.88;5005692;28;20235;-50
2023/10/31 09:55:06;;;;;;;6.83;1.17;;;;;;;11.59;100.00;149029.06;5006245;28;20229;-52
2023/10/31 09:57:33;;;;;;;3.90;0.90;;;;;;;11.74;100.00;149065.19;4990158;28;20234;-51
2023/10/31 10:00:00;;;;;;;3.33;0.90;;;;;;;11.85;100.00;149091.41;5004930;28;20227;-51
2023/10/31 10:02:28;;;;;;;3.93;0.70;;;;;;;11.50;100.00;149009.13;5009918;28;20670;-51
2023/10/31 10:04:54;;;;;;;5.17;0.93;;;;;;;11.28;100.00;148954.31;5007523;28;20319;-50
2023/10/31 10:07:21;;;;;;;1.73;0.77;;;;;;;11.68;100.00;149051.50;5008024;28;20226;-51
2023/10/31 10:09:47;;;;;;;4.07;0.87;;;;;;;11.73;100.00;149063.97;4978052;28;20230;-51
2023/10/31 10:12:16;;;;;;;3.83;1.03;;;;;;;12.08;100.00;149148.78;5003221;28;20725;-51
2023/10/31 10:14:42;;;;;;;4.70;1.07;;;;;;;12.18;100.00;149171.25;4986669;28;20244;-50
2023/10/31 10:17:15;;;;;;;1.80;0.63;;;;;;;12.32;100.00;149204.88;4990386;28;20234;-53
2023/10/31 10:19:43;;;;;;;2.50;0.60;;;;;;;11.83;100.00;149087.63;4995866;28;20732;-51
2023/10/31 10:22:11;;;;;;;4.87;0.60;;;;;;;11.79;100.00;149078.94;4986739;28;20656;-54
2023/10/31 10:24:41;;;;;;;3.92;0.75;;;;;;;12.06;100.00;149142.53;4992746;28;20933;-52
2023/10/31 10:27:08;;;;;;;1.43;0.70;;;;;;;12.24;100.00;149187.44;4988461;28;20341;-53
2023/10/31 10:29:35;;;;;;;3.67;0.70;;;;;;;12.26;100.00;149191.16;5007483;28;20220;-54
2023/10/31 10:32:01;;;;;;;3.17;0.70;;;;;;;12.24;100.00;149187.44;4989313;28;20807;-54
2023/10/31 10:34:28;;;;;;;3.87;0.80;;;;;;;12.39;99.09;149222.34;5007304;28;20720;-54
2023/10/31 10:36:59;;;;;;;2.30;0.60;;;;;;;12.32;99.96;149204.88;5006558;28;20226;-52
2023/10/31 10:39:25;;;;;;;3.77;0.80;;;;;;;12.40;99.95;149226.06;5007086;28;20228;-52
2023/10/31 10:41:57;;;;;;;6.10;2.40;;;;;;;12.19;97.08;149173.72;5012464;28;20243;-53
2023/10/31 10:44:32;;;;;;;2.80;1.30;;;;;;;12.28;97.81;149196.13;5008467;28;20223;-52
2023/10/31 10:47:01;;;;;;;2.90;0.83;;;;;;;12.31;99.53;149203.63;4984819;28;20244;-51
2023/10/31 10:49:29;;;;;;;3.10;0.80;;;;;;;12.44;97.18;149234.81;5009199;28;20237;-51
2023/10/31 10:52:02;;;;;;;8.00;4.53;;;;;;;12.31;100.00;149202.38;5004064;28;20227;-53
2023/10/31 10:54:34;;;;;;;3.97;0.97;;;;;;;12.27;100.00;149193.63;5008285;28;20226;-51
2023/10/31 10:57:10;;;;;;;13.43;9.17;;;;;;;12.38;100.00;149219.84;4978183;28;20938;-50
2023/10/31 10:59:41;;;;;;;12.33;10.10;;;;;;;11.99;100.00;149126.31;5010066;28;20245;-50
2023/10/31 11:02:10;;;;;;;4.20;0.90;;;;;;;11.94;100.00;149113.84;5003968;28;20223;-51
2023/10/31 11:04:37;;;;;;;4.53;1.87;;;;;;;12.00;100.00;149127.56;5004974;28;20323;-50
2023/10/31 11:07:06;;;;;;;3.43;1.10;;;;;;;11.94;100.00;149115.06;5002753;28;20231;-51
2023/10/31 11:09:34;;;;;;;21.50;13.30;;;;;;;11.91;100.00;149107.59;5008135;28;20758;-50
2023/10/31 11:12:01;;;;;;;6.07;4.03;;;;;;;11.87;100.00;149097.59;5003976;28;20594;-51
2023/10/31 11:14:30;;;;;;;7.30;2.97;;;;;;;11.96;100.00;149118.81;5003387;28;20226;-51
2023/10/31 11:17:02;;;;;;;2.63;0.87;;;;;;;11.92;100.00;149108.84;5000756;28;20238;-51
2023/10/31 11:19:30;;;;;;;2.93;0.93;;;;;;;11.72;100.00;149061.47;4996412;28;20235;-51
2023/10/31 11:21:59;;;;;;;4.57;2.07;;;;;;;11.88;100.00;149100.09;5005492;28;20297;-51
2023/10/31 11:24:29;;;;;;;3.60;2.57;;;;;;;12.00;100.00;149127.56;5007659;28;20289;-52
2023/10/31 11:27:00;;;;;;;5.23;1.90;;;;;;;12.23;100.00;149184.94;5004555;28;20218;-53